Time;durP1;ratioP1;P1;durP2;ratioP2;P2;SDS_P1;SDS_P2;PMS_P1;PMS_P2;Temp;Humidity;BMP_temperature;BMP_pressure;BME280_temperature;BME280_humidity;BME280_pressure;Samples;Min_cycle;Max_cycle;Signal;HPM_P1;HPM_P2
2024/03/02 00:00:13;;;;;;;13.32;5.40;;;;;;;;;;10513950;28;20121;-74
2024/03/02 00:05:19;;;;;;;9.75;4.82;;;;;;;;;;10521954;28;20048;-74
2024/03/02 00:10:25;;;;;;;11.27;5.18;;;;;;;;;;10519201;28;20040;-75
2024/03/02 00:15:39;;;;;;;9.70;3.78;;;;;;;;;;10523258;28;20051;-75
2024/03/02 00:20:42;;;;;;;;;;;;;;;;;;10517844;28;20135;-75
2024/03/02 00:25:48;;;;;;;8.95;3.33;;;;;;;;;;10515935;28;20011;-75
2024/03/02 00:30:58;;;;;;;8.90;4.43;;;;;;;;;;10515167;28;20036;-74
2024/03/02 00:36:00;;;;;;;12.02;4.65;;;;;;;;;;10512160;28;20040;-74
2024/03/02 00:41:07;;;;;;;9.95;5.18;;;;;;;;;;10517780;28;20143;-74
2024/03/02 00:46:11;;;;;;;6.47;3.47;;;;;;;;;;10512744;28;20044;-75
2024/03/02 00:51:14;;;;;;;14.25;5.40;;;;;;;;;;10516495;28;20185;-74
2024/03/02 00:56:19;;;;;;;12.50;5.63;;;;;;;;;;10515312;28;20039;-75
2024/03/02 01:01:22;;;;;;;15.55;6.20;;;;;;;;;;10514853;28;20032;-74
2024/03/02 01:06:25;;;;;;;15.23;5.85;;;;;;;;;;10517608;28;20090;-76
2024/03/02 01:11:29;;;;;;;9.80;4.78;;;;;;;;;;10513587;28;20404;-75
2024/03/02 01:16:32;;;;;;;;;;;;;;;;;;10506383;28;20557;-75
2024/03/02 01:21:35;;;;;;;11.27;5.15;;;;;;;;;;10516369;28;19920;-75
2024/03/02 01:26:39;;;;;;;9.60;3.28;;;;;;;;;;10510923;28;20055;-74
2024/03/02 01:31:42;;;;;;;8.77;3.92;;;;;;;;;;10514753;28;20129;-75
2024/03/02 01:36:45;;;;;;;14.37;5.43;;;;;;;;;;10509822;28;20054;-73
2024/03/02 01:41:49;;;;;;;11.65;5.55;;;;;;;;;;10518339;28;20045;-74
2024/03/02 01:46:52;;;;;;;5.78;2.75;;;;;;;;;;10515634;28;20135;-74
2024/03/02 01:51:55;;;;;;;12.88;4.80;;;;;;;;;;10513599;28;20032;-74
2024/03/02 01:56:59;;;;;;;8.68;2.80;;;;;;;;;;10515114;28;20055;-75
2024/03/02 02:02:02;;;;;;;12.65;4.90;;;;;;;;;;10511675;28;20131;-74
2024/03/02 02:07:06;;;;;;;7.43;3.45;;;;;;;;;;10518767;28;20457;-75
2024/03/02 02:12:09;;;;;;;;;;;;;;;;;;10506823;28;20040;-75
2024/03/02 02:17:13;;;;;;;12.70;5.28;;;;;;;;;;10506205;28;20047;-76
2024/03/02 02:22:17;;;;;;;11.25;5.10;;;;;;;;;;10512140;28;20563;-75
2024/03/02 02:27:20;;;;;;;11.15;4.72;;;;;;;;;;10510469;28;20051;-76
2024/03/02 02:32:22;;;;;;;11.20;5.25;;;;;;;;;;10506682;28;20470;-76
2024/03/02 02:37:26;;;;;;;14.73;5.40;;;;;;;;;;10510428;28;20420;-75
2024/03/02 02:42:29;;;;;;;;;;;;;;;;;;10501712;28;20052;-75
2024/03/02 02:47:34;;;;;;;11.20;4.80;;;;;;;;;;10506258;28;19966;-75
2024/03/02 02:52:40;;;;;;;11.43;4.80;;;;;;;;;;10506557;28;20058;-74
2024/03/02 02:57:43;;;;;;;9.85;4.63;;;;;;;;;;10518678;28;20044;-77
2024/03/02 03:02:48;;;;;;;10.10;3.50;;;;;;;;;;10514810;28;20127;-76
2024/03/02 03:07:54;;;;;;;10.68;4.55;;;;;;;;;;10518650;28;20046;-75
2024/03/02 03:12:56;;;;;;;13.32;5.80;;;;;;;;;;10508277;28;20445;-75
2024/03/02 03:17:59;;;;;;;11.88;5.22;;;;;;;;;;10519011;28;20043;-75
2024/03/02 03:23:04;;;;;;;11.60;5.32;;;;;;;;;;10521623;28;20489;-75
2024/03/02 03:28:06;;;;;;;13.35;5.70;;;;;;;;;;10515847;28;20058;-75
2024/03/02 03:33:09;;;;;;;13.20;4.93;;;;;;;;;;10516312;28;20584;-75
2024/03/02 03:38:13;;;;;;;12.32;4.95;;;;;;;;;;10516816;28;20059;-74
2024/03/02 03:43:16;;;;;;;10.43;4.68;;;;;;;;;;10513131;28;20029;-74
2024/03/02 03:48:19;;;;;;;9.98;4.30;;;;;;;;;;10513787;28;20129;-75
2024/03/02 03:53:24;;;;;;;7.00;2.97;;;;;;;;;;10522209;28;20047;-75
2024/03/02 03:58:27;;;;;;;7.20;3.20;;;;;;;;;;10511938;28;20154;-76
2024/03/02 04:03:30;;;;;;;9.18;3.42;;;;;;;;;;10512031;28;20082;-75
2024/03/02 04:08:34;;;;;;;7.22;3.47;;;;;;;;;;10514836;28;20117;-75
2024/03/02 04:13:36;;;;;;;13.05;5.30;;;;;;;;;;10511264;28;20525;-74
2024/03/02 04:18:40;;;;;;;8.98;3.33;;;;;;;;;;10520017;28;20043;-76
2024/03/02 04:23:44;;;;;;;14.85;6.78;;;;;;;;;;10518116;28;20059;-75
2024/03/02 04:28:46;;;;;;;13.57;4.88;;;;;;;;;;10517427;28;20048;-75
2024/03/02 04:33:49;;;;;;;15.98;6.30;;;;;;;;;;10509511;28;20047;-75
2024/03/02 04:38:53;;;;;;;18.17;6.00;;;;;;;;;;10515988;28;20056;-74
2024/03/02 04:43:56;;;;;;;15.50;6.55;;;;;;;;;;10507232;28;20044;-75
2024/03/02 04:48:59;;;;;;;16.45;7.63;;;;;;;;;;10506170;28;20036;-74
2024/03/02 04:54:03;;;;;;;19.37;6.93;;;;;;;;;;10512539;28;20535;-74
2024/03/02 04:59:06;;;;;;;20.75;7.50;;;;;;;;;;10515341;28;20045;-75
2024/03/02 05:04:11;;;;;;;16.77;7.60;;;;;;;;;;10512515;28;20528;-75
2024/03/02 05:09:15;;;;;;;16.58;7.07;;;;;;;;;;10505014;28;20076;-75
2024/03/02 05:14:18;;;;;;;;;;;;;;;;;;10509076;28;20044;-74
2024/03/02 05:19:20;;;;;;;15.25;6.82;;;;;;;;;;10504743;28;20970;-74
2024/03/02 05:24:27;;;;;;;15.82;6.32;;;;;;;;;;10507344;28;20127;-74
2024/03/02 05:29:29;;;;;;;18.45;8.18;;;;;;;;;;10505355;28;20048;-75
2024/03/02 05:34:34;;;;;;;19.70;7.47;;;;;;;;;;10508212;28;20072;-76
2024/03/02 05:39:38;;;;;;;17.17;7.55;;;;;;;;;;10503310;28;20063;-74
2024/03/02 05:44:41;;;;;;;17.35;7.70;;;;;;;;;;10492410;28;20097;-74
2024/03/02 05:49:44;;;;;;;19.85;7.82;;;;;;;;;;10521046;28;20126;-75
2024/03/02 05:54:48;;;;;;;20.60;8.20;;;;;;;;;;10522157;28;20044;-74
2024/03/02 05:59:52;;;;;;;16.52;7.53;;;;;;;;;;10513027;28;20040;-76
2024/03/02 06:04:55;;;;;;;17.30;7.70;;;;;;;;;;10517639;28;20396;-75
2024/03/02 06:10:00;;;;;;;20.33;8.15;;;;;;;;;;10516789;28;20391;-76
2024/03/02 06:15:03;;;;;;;;;;;;;;;;;;10512554;28;20046;-77
2024/03/02 06:20:08;;;;;;;21.02;8.30;;;;;;;;;;10507496;28;20444;-76
2024/03/02 06:25:10;;;;;;;;;;;;;;;;;;10490653;28;20036;-75
2024/03/02 06:30:15;;;;;;;18.05;8.27;;;;;;;;;;10507978;28;19923;-75
2024/03/02 06:35:17;;;;;;;20.27;8.75;;;;;;;;;;10508274;28;20049;-74
2024/03/02 06:40:21;;;;;;;20.92;8.38;;;;;;;;;;10515822;28;20127;-75
2024/03/02 06:45:25;;;;;;;17.40;7.80;;;;;;;;;;10513283;28;20052;-75
2024/03/02 06:50:28;;;;;;;19.83;8.18;;;;;;;;;;10511441;28;20040;-75
2024/03/02 06:55:31;;;;;;;22.60;8.70;;;;;;;;;;10504802;28;20124;-75
2024/03/02 07:00:34;;;;;;;19.10;8.32;;;;;;;;;;10511528;28;20051;-75
2024/03/02 07:05:37;;;;;;;19.17;7.68;;;;;;;;;;10507947;28;20489;-74
2024/03/02 07:10:40;;;;;;;19.88;8.52;;;;;;;;;;10504960;28;20579;-74
2024/03/02 07:15:59;;;;;;;18.25;7.80;;;;;;;;;;10504855;28;20040;-73
2024/03/02 07:21:03;;;;;;;18.98;8.07;;;;;;;;;;10512111;28;20048;-74
2024/03/02 07:26:06;;;;;;;19.07;9.00;;;;;;;;;;10513811;28;20128;-75
2024/03/02 07:31:13;;;;;;;15.52;8.05;;;;;;;;;;10509369;28;20048;-74
2024/03/02 07:36:16;;;;;;;18.67;8.32;;;;;;;;;;10504461;28;20036;-73
2024/03/02 07:41:18;;;;;;;21.38;7.85;;;;;;;;;;10516811;28;20075;-74
2024/03/02 07:46:22;;;;;;;19.40;8.13;;;;;;;;;;10514438;28;20052;-74
2024/03/02 07:51:25;;;;;;;19.13;8.02;;;;;;;;;;10511211;28;20040;-75
2024/03/02 07:56:28;;;;;;;17.08;8.25;;;;;;;;;;10514312;28;20064;-75
2024/03/02 08:01:33;;;;;;;16.45;8.00;;;;;;;;;;10516458;28;20127;-75
2024/03/02 08:06:35;;;;;;;12.90;7.07;;;;;;;;;;10524706;28;20028;-75
2024/03/02 08:11:38;;;;;;;13.75;8.63;;;;;;;;;;10519492;28;20048;-75
2024/03/02 08:16:42;;;;;;;12.00;7.03;;;;;;;;;;10513278;28;20502;-75
2024/03/02 08:21:45;;;;;;;10.32;5.93;;;;;;;;;;10513972;28;20117;-74
2024/03/02 08:26:48;;;;;;;9.63;6.55;;;;;;;;;;10513072;28;20051;-75
2024/03/02 08:31:52;;;;;;;11.07;7.53;;;;;;;;;;10517286;28;20048;-76
2024/03/02 08:36:54;;;;;;;11.77;8.63;;;;;;;;;;10512364;28;20048;-76
2024/03/02 08:41:57;;;;;;;12.02;8.73;;;;;;;;;;10513745;28;20083;-76
2024/03/02 08:47:01;;;;;;;12.80;10.02;;;;;;;;;;10512696;28;20045;-76
2024/03/02 08:52:04;;;;;;;13.77;9.75;;;;;;;;;;10504781;28;20692;-75
2024/03/02 08:57:08;;;;;;;11.88;9.00;;;;;;;;;;10508778;28;20040;-77
2024/03/02 09:02:12;;;;;;;13.73;8.98;;;;;;;;;;10515123;28;20121;-74
2024/03/02 09:07:15;;;;;;;12.00;9.00;;;;;;;;;;10506449;28;20040;-75
2024/03/02 09:12:17;;;;;;;13.38;9.63;;;;;;;;;;10511276;28;20458;-75
2024/03/02 09:17:22;;;;;;;10.88;8.23;;;;;;;;;;10514984;28;20043;-75
2024/03/02 09:22:24;;;;;;;13.45;8.88;;;;;;;;;;10516027;28;20385;-75
2024/03/02 09:27:27;;;;;;;11.45;7.68;;;;;;;;;;10507392;28;20122;-75
2024/03/02 09:32:31;;;;;;;12.07;8.63;;;;;;;;;;10508498;28;20036;-74
2024/03/02 09:37:34;;;;;;;14.15;9.30;;;;;;;;;;10515143;28;20059;-75
2024/03/02 09:42:37;;;;;;;12.63;9.10;;;;;;;;;;10505210;28;20124;-76
2024/03/02 09:47:41;;;;;;;9.88;7.28;;;;;;;;;;10514542;28;20425;-75
2024/03/02 09:52:45;;;;;;;9.85;7.20;;;;;;;;;;10515630;28;20047;-75
2024/03/02 09:57:49;;;;;;;9.30;6.07;;;;;;;;;;10509355;28;20051;-74
2024/03/02 10:02:54;;;;;;;10.80;6.93;;;;;;;;;;10519798;28;20048;-74
2024/03/02 10:08:01;;;;;;;9.55;6.25;;;;;;;;;;10505313;28;20127;-75
2024/03/02 10:13:06;;;;;;;12.05;7.82;;;;;;;;;;10512611;28;20040;-74
2024/03/02 10:18:11;;;;;;;12.40;7.38;;;;;;;;;;10514883;28;20165;-75
2024/03/02 10:23:16;;;;;;;11.63;7.68;;;;;;;;;;10508271;28;20052;-76
2024/03/02 10:28:19;;;;;;;9.80;5.70;;;;;;;;;;10507027;28;20036;-74
2024/03/02 10:33:23;;;;;;;10.63;7.05;;;;;;;;;;10512812;28;20474;-76
2024/03/02 10:38:26;;;;;;;11.43;6.85;;;;;;;;;;10513973;28;20048;-76
2024/03/02 10:43:29;;;;;;;10.38;6.82;;;;;;;;;;10512844;28;20038;-74
2024/03/02 10:48:33;;;;;;;13.20;7.68;;;;;;;;;;10508389;28;20163;-75
2024/03/02 10:53:36;;;;;;;13.75;8.18;;;;;;;;;;10510643;28;20044;-76
2024/03/02 10:58:39;;;;;;;11.95;8.00;;;;;;;;;;10514765;28;20120;-75
2024/03/02 11:03:45;;;;;;;13.57;8.18;;;;;;;;;;10503679;28;20052;-77
2024/03/02 11:08:50;;;;;;;13.38;8.88;;;;;;;;;;10514222;28;20044;-75
2024/03/02 11:13:54;;;;;;;15.38;9.02;;;;;;;;;;10518388;28;20036;-75
2024/03/02 11:18:58;;;;;;;20.45;9.85;;;;;;;;;;10509101;28;20051;-76
2024/03/02 11:24:02;;;;;;;18.40;10.25;;;;;;;;;;10505694;28;20048;-75
2024/03/02 11:29:04;;;;;;;15.48;9.98;;;;;;;;;;10508939;28;20067;-75
2024/03/02 11:34:29;;;;;;;15.65;10.32;;;;;;;;;;10503155;28;20040;-76
2024/03/02 11:39:33;;;;;;;16.77;11.02;;;;;;;;;;10513428;28;20041;-75
2024/03/02 11:44:36;;;;;;;16.15;10.05;;;;;;;;;;10515821;28;20046;-80
2024/03/02 11:49:40;;;;;;;17.80;12.27;;;;;;;;;;10508103;28;20517;-79
2024/03/02 11:54:47;;;;;;;17.70;11.35;;;;;;;;;;10518523;28;20070;-79
2024/03/02 11:59:51;;;;;;;17.50;10.75;;;;;;;;;;10517264;28;20093;-79
2024/03/02 12:04:56;;;;;;;18.00;11.95;;;;;;;;;;10499330;28;20036;-79
2024/03/02 12:10:03;;;;;;;19.02;12.25;;;;;;;;;;10517370;28;20175;-80
2024/03/02 12:15:07;;;;;;;18.20;11.45;;;;;;;;;;10517944;28;20444;-80
2024/03/02 12:20:14;;;;;;;19.25;12.82;;;;;;;;;;10520361;28;20046;-81
2024/03/02 12:25:17;;;;;;;16.10;11.20;;;;;;;;;;10521582;28;20056;-81
2024/03/02 12:30:20;;;;;;;18.88;11.43;;;;;;;;;;10543355;28;20117;-86
2024/03/02 12:35:25;;;;;;;18.92;11.20;;;;;;;;;;10524637;28;20300;-87
2024/03/02 12:40:31;;;;;;;18.23;12.23;;;;;;;;;;10555080;28;20051;-86
2024/03/02 12:45:56;;;;;;;17.92;11.82;;;;;;;;;;10524022;28;20044;-87
2024/03/02 12:51:05;;;;;;;20.20;11.25;;;;;;;;;;10515826;28;20124;-77
2024/03/02 12:56:13;;;;;;;16.42;10.65;;;;;;;;;;10496969;28;20579;-78
2024/03/02 13:01:21;;;;;;;17.10;10.63;;;;;;;;;;10516445;28;20091;-77
2024/03/02 13:06:29;;;;;;;17.98;11.02;;;;;;;;;;10521451;28;20119;-78
2024/03/02 13:11:46;;;;;;;17.98;10.35;;;;;;;;;;10502865;28;20048;-77
2024/03/02 13:16:53;;;;;;;17.60;10.68;;;;;;;;;;10507742;28;20059;-77
2024/03/02 13:22:02;;;;;;;17.70;10.73;;;;;;;;;;10470488;28;20043;-78
2024/03/02 13:27:05;;;;;;;18.20;10.75;;;;;;;;;;10506830;28;20116;-76
2024/03/02 13:32:11;;;;;;;17.92;9.95;;;;;;;;;;10497876;28;20052;-77
2024/03/02 13:37:28;;;;;;;17.55;9.20;;;;;;;;;;10495915;28;20059;-77
2024/03/02 13:42:36;;;;;;;18.50;10.65;;;;;;;;;;10506387;28;20056;-78
2024/03/02 13:47:42;;;;;;;18.23;10.98;;;;;;;;;;10515746;28;20619;-77
2024/03/02 13:52:51;;;;;;;16.63;9.18;;;;;;;;;;10507726;28;20148;-76
2024/03/02 13:58:09;;;;;;;20.77;11.50;;;;;;;;;;10488036;28;20040;-78
2024/03/02 14:03:20;;;;;;;20.05;11.00;;;;;;;;;;10513477;28;20106;-78
2024/03/02 14:08:28;;;;;;;16.60;9.50;;;;;;;;;;10506340;28;20036;-77
2024/03/02 14:13:31;;;;;;;16.38;8.10;;;;;;;;;;10510805;28;20124;-78
2024/03/02 14:18:39;;;;;;;14.25;7.03;;;;;;;;;;10493242;28;20397;-77
2024/03/02 14:23:48;;;;;;;16.55;6.95;;;;;;;;;;10511080;28;20052;-78
2024/03/02 14:28:56;;;;;;;;;;;;;;;;;;10494816;28;20050;-79
2024/03/02 14:34:10;;;;;;;16.05;6.65;;;;;;;;;;10504214;28;21875;-77
2024/03/02 14:39:34;;;;;;;17.38;8.07;;;;;;;;;;10498808;28;20050;-78
2024/03/02 14:44:44;;;;;;;14.15;7.13;;;;;;;;;;10493366;28;20051;-79
2024/03/02 14:49:51;;;;;;;16.95;7.30;;;;;;;;;;10478248;28;20063;-77
2024/03/02 14:55:03;;;;;;;16.85;8.80;;;;;;;;;;10518946;28;20560;-77
2024/03/02 15:00:11;;;;;;;;;;;;;;;;;;10522531;28;20068;-77
2024/03/02 15:05:17;;;;;;;20.05;8.38;;;;;;;;;;10521228;28;19943;-79
2024/03/02 15:10:27;;;;;;;18.67;8.85;;;;;;;;;;10516204;28;20070;-78
2024/03/02 15:15:47;;;;;;;14.57;7.45;;;;;;;;;;10522904;28;20911;-77
2024/03/02 15:20:54;;;;;;;22.27;9.63;;;;;;;;;;10525015;28;20104;-78
2024/03/02 15:26:03;;;;;;;24.83;9.70;;;;;;;;;;10521595;28;20041;-77
2024/03/02 15:31:12;;;;;;;21.35;9.27;;;;;;;;;;10511672;28;20043;-78
2024/03/02 15:36:21;;;;;;;21.70;9.60;;;;;;;;;;10545527;28;20075;-76
2024/03/02 15:41:32;;;;;;;18.88;9.02;;;;;;;;;;10503331;28;20592;-78
2024/03/02 15:46:39;;;;;;;21.48;9.43;;;;;;;;;;10476334;28;20109;-78
2024/03/02 15:52:00;;;;;;;19.25;9.27;;;;;;;;;;10480858;28;20132;-77
2024/03/02 15:57:22;;;;;;;22.23;9.93;;;;;;;;;;10483031;28;20406;-77
2024/03/02 16:02:29;;;;;;;19.58;9.43;;;;;;;;;;10482782;28;20071;-78
2024/03/02 16:07:32;;;;;;;23.13;10.00;;;;;;;;;;10462443;28;20072;-78
2024/03/02 16:12:43;;;;;;;28.23;11.25;;;;;;;;;;10480826;28;20048;-78
2024/03/02 16:17:55;;;;;;;24.20;9.70;;;;;;;;;;10469903;28;20036;-78
2024/03/02 16:23:02;;;;;;;26.02;9.60;;;;;;;;;;10477921;28;20055;-78
2024/03/02 16:28:07;;;;;;;29.30;11.55;;;;;;;;;;10464451;28;20545;-78
2024/03/02 16:33:14;;;;;;;27.60;10.77;;;;;;;;;;10476755;28;20510;-78
2024/03/02 16:38:24;;;;;;;28.15;9.75;;;;;;;;;;10486595;28;20121;-78
2024/03/02 16:43:29;;;;;;;23.85;9.60;;;;;;;;;;10473609;28;20056;-78
2024/03/02 16:48:35;;;;;;;27.50;9.70;;;;;;;;;;10480828;28;20461;-77
2024/03/02 16:53:55;;;;;;;28.45;9.25;;;;;;;;;;10458102;28;20049;-79
2024/03/02 16:59:12;;;;;;;29.60;9.52;;;;;;;;;;10464948;28;20036;-77
2024/03/02 17:04:20;;;;;;;31.85;11.00;;;;;;;;;;10458853;28;20130;-77
2024/03/02 17:09:27;;;;;;;25.52;8.82;;;;;;;;;;10472527;28;20143;-75
2024/03/02 17:14:32;;;;;;;27.75;10.00;;;;;;;;;;10453315;28;20052;-75
2024/03/02 17:19:38;;;;;;;31.80;11.15;;;;;;;;;;10474168;28;20490;-74
2024/03/02 17:24:47;;;;;;;24.65;8.25;;;;;;;;;;10479727;28;20048;-75
2024/03/02 17:29:55;;;;;;;29.30;10.02;;;;;;;;;;10471225;28;20055;-76
2024/03/02 17:35:18;;;;;;;29.48;10.32;;;;;;;;;;10473566;28;20052;-75
2024/03/02 17:40:24;;;;;;;35.22;10.45;;;;;;;;;;10475275;28;20048;-76
2024/03/02 17:45:31;;;;;;;32.88;10.00;;;;;;;;;;10475037;28;20060;-74
2024/03/02 17:50:38;;;;;;;27.55;10.63;;;;;;;;;;10454588;28;20191;-75
2024/03/02 17:55:45;;;;;;;31.45;10.93;;;;;;;;;;10450004;28;21017;-75
2024/03/02 18:01:22;;;;;;;34.65;11.27;;;;;;;;;;10447601;28;20128;-76
2024/03/02 18:06:47;;;;;;;29.92;10.40;;;;;;;;;;10477041;28;20072;-76
2024/03/02 18:12:00;;;;;;;27.17;9.77;;;;;;;;;;10441031;28;20132;-77
2024/03/02 18:17:08;;;;;;;28.98;9.85;;;;;;;;;;10467662;28;20382;-76
2024/03/02 18:22:11;;;;;;;;;;;;;;;;;;10450395;28;20419;-75
2024/03/02 18:27:18;;;;;;;30.92;10.93;;;;;;;;;;10479005;28;19924;-75
2024/03/02 18:32:23;;;;;;;31.20;10.75;;;;;;;;;;10511382;28;20067;-75
2024/03/02 18:37:32;;;;;;;33.03;11.13;;;;;;;;;;10505249;28;20054;-74
2024/03/02 18:42:38;;;;;;;29.77;11.20;;;;;;;;;;10497961;28;20044;-75
2024/03/02 18:47:46;;;;;;;31.13;11.07;;;;;;;;;;10516476;28;20535;-75
2024/03/02 18:52:52;;;;;;;35.15;12.13;;;;;;;;;;10500433;28;20056;-75
2024/03/02 18:57:59;;;;;;;33.95;12.07;;;;;;;;;;10521327;28;20140;-73
2024/03/02 19:03:13;;;;;;;35.83;11.50;;;;;;;;;;10521693;28;20066;-75
2024/03/02 19:08:19;;;;;;;40.90;11.23;;;;;;;;;;10512315;28;20048;-75
2024/03/02 19:13:34;;;;;;;37.38;12.50;;;;;;;;;;10512631;28;20580;-75
2024/03/02 19:18:39;;;;;;;36.45;10.38;;;;;;;;;;10519012;28;20062;-75
2024/03/02 19:23:46;;;;;;;31.60;11.32;;;;;;;;;;10516498;28;20139;-77
2024/03/02 19:29:03;;;;;;;32.50;11.90;;;;;;;;;;10497930;28;20412;-77
2024/03/02 19:34:08;;;;;;;34.90;12.18;;;;;;;;;;10517920;28;20074;-76
2024/03/02 19:39:17;;;;;;;33.28;12.65;;;;;;;;;;10519318;28;20374;-75
2024/03/02 19:44:40;;;;;;;35.15;12.52;;;;;;;;;;10518136;28;20048;-75
2024/03/02 19:49:48;;;;;;;35.38;11.25;;;;;;;;;;10520146;28;20121;-75
2024/03/02 19:55:05;;;;;;;37.22;13.40;;;;;;;;;;10527668;28;20047;-76
2024/03/02 20:00:23;;;;;;;41.70;12.88;;;;;;;;;;10518279;28;20937;-75
2024/03/02 20:05:44;;;;;;;38.88;13.23;;;;;;;;;;10506598;28;20131;-76
2024/03/02 20:10:53;;;;;;;35.17;12.40;;;;;;;;;;10524539;28;20040;-75
2024/03/02 20:16:04;;;;;;;34.50;13.30;;;;;;;;;;10532332;28;20098;-74
2024/03/02 20:21:11;;;;;;;34.53;11.82;;;;;;;;;;10522299;28;20426;-75
2024/03/02 20:26:26;;;;;;;38.50;12.15;;;;;;;;;;10518085;28;20658;-74
2024/03/02 20:31:31;;;;;;;32.70;11.93;;;;;;;;;;10517150;28;20048;-76
2024/03/02 20:36:48;;;;;;;38.13;12.85;;;;;;;;;;10513641;28;20057;-73
2024/03/02 20:41:54;;;;;;;35.22;12.40;;;;;;;;;;10521639;28;20044;-74
2024/03/02 20:53:47;;;;;;;36.53;12.05;;;;;;;;;;10484790;28;20108;-75
2024/03/02 20:58:56;;;;;;;33.47;11.15;;;;;;;;;;10511492;28;20106;-73
2024/03/02 21:04:05;;;;;;;38.30;13.23;;;;;;;;;;10514763;28;20619;-75
2024/03/02 21:09:13;;;;;;;40.67;13.43;;;;;;;;;;10517039;28;20104;-73
2024/03/02 21:19:38;;;;;;;33.03;11.40;;;;;;;;;;10513525;28;20063;-76
2024/03/02 21:25:01;;;;;;;35.60;12.18;;;;;;;;;;10519007;28;20397;-75
2024/03/02 21:30:09;;;;;;;22.30;6.10;;;;;;;;;;10516297;28;20044;-74
2024/03/02 21:35:32;;;;;;;40.78;12.95;;;;;;;;;;10518237;28;20064;-76
2024/03/02 21:40:36;;;;;;;28.17;9.82;;;;;;;;;;10516301;28;20040;-74
2024/03/02 21:45:55;;;;;;;38.00;11.80;;;;;;;;;;10486980;28;20054;-74
2024/03/02 21:51:05;;;;;;;42.13;13.52;;;;;;;;;;10498811;28;20114;-78
2024/03/02 21:56:13;;;;;;;45.00;13.20;;;;;;;;;;10513097;28;20118;-79
2024/03/02 22:01:28;;;;;;;42.10;12.60;;;;;;;;;;10514151;28;20048;-76
2024/03/02 22:06:36;;;;;;;45.08;13.38;;;;;;;;;;10507144;28;20048;-75
2024/03/02 22:11:54;;;;;;;39.00;12.13;;;;;;;;;;10494679;28;20048;-73
2024/03/02 22:17:20;;;;;;;38.92;12.27;;;;;;;;;;10507728;28;20409;-74
2024/03/02 22:22:30;;;;;;;34.15;11.60;;;;;;;;;;10512742;28;20055;-76
2024/03/02 22:27:40;;;;;;;40.65;12.32;;;;;;;;;;10503733;28;20039;-76
2024/03/02 22:32:48;;;;;;;39.28;13.27;;;;;;;;;;10475566;28;20046;-75
2024/03/02 22:37:59;;;;;;;35.65;11.95;;;;;;;;;;10513188;28;20113;-75
2024/03/02 22:43:08;;;;;;;40.30;12.40;;;;;;;;;;10508978;28;20048;-77
2024/03/02 22:48:20;;;;;;;36.20;11.55;;;;;;;;;;10513439;28;20172;-75
2024/03/02 22:53:24;;;;;;;39.40;12.68;;;;;;;;;;10478128;28;20102;-76
2024/03/02 22:58:31;;;;;;;38.53;12.47;;;;;;;;;;10493033;28;20044;-75
2024/03/02 23:03:39;;;;;;;34.50;11.55;;;;;;;;;;10509218;28;20055;-75
2024/03/02 23:08:46;;;;;;;39.22;11.57;;;;;;;;;;10495726;28;20044;-74
2024/03/02 23:14:05;;;;;;;37.90;12.02;;;;;;;;;;10499198;28;20044;-74
2024/03/02 23:19:20;;;;;;;36.97;11.90;;;;;;;;;;10522831;28;20078;-74
2024/03/02 23:24:24;;;;;;;35.42;11.82;;;;;;;;;;10482494;28;20090;-74
2024/03/02 23:29:28;;;;;;;38.00;12.20;;;;;;;;;;10509433;28;20493;-74
2024/03/02 23:34:35;;;;;;;22.50;8.50;;;;;;;;;;10517965;28;20313;-74
2024/03/02 23:45:09;;;;;;;39.10;10.27;;;;;;;;;;10456083;28;20131;-73
2024/03/02 23:50:21;;;;;;;35.83;11.98;;;;;;;;;;10502490;28;20040;-73
2024/03/02 23:55:43;;;;;;;14.40;6.10;;;;;;;;;;10501218;28;20059;-74
